バンクーバー の空港の天気 - METARとTAF

バンクーバー国際空港 ( CYVR / YVR ) - カナダ ブリティッシュコロンビア州バンクーバー
飛行場実況気象(Metar)
観測時間08/14 12:00 PDT (08/14 19:00 UTC)
風向・風速南西 4m/s
視程10km以上
天気現象
少しの雲 雲底高度 1830m
少しの雲 雲底高度 7920m
気温19℃
湿度68%
気圧1023.6hPa
METARCYVR 141900Z 23007KT 25SM FEW060 FEW260 19/13 A3022 RMK SC1CI1 SC TR SLP236 DENSITY ALT 200FT
過去の天気等 Google飛行場航空写真 Wunderground天気予報

過去48時間のMETAR

飛行場予報(TAF)
発表時間: 8/14 10:38 PDT (8/14 17:38 UTC)
予報対象時間: 14日11時 PDT ~ 15日17時 PDT
風向・風速不定 2m/s
視程10km以上
なし
14日12時 PDT から
風向・風速西南西 4m/s
視程10km以上
少しの雲 雲底高度 1830m
14日23時 PDT から
風向・風速東 3m/s
視程10km以上
少しの雲 雲底高度 6100m
15日11時 PDT から
風向・風速西 4m/s
視程10km以上
なし
TAF CYVR 141738Z 1418/1524 VRB03KT P6SM SKC
FM141900 24008KT P6SM FEW060
FM150600 09006KT P6SM FEW200
FM151800 28008KT P6SM SKC RMK NXT FCST BY 142100Z